METAR (acronimo di METeorological Air Report) è un messaggio meteo emesso nella maggior parte dei casi in ambito aeroportuale

LIPF - Ferrara, It
Distanza dalla Stazione: 8 km
Ultimo Aggiornamento: Venerdì 29 Maggio 2020 13:55 CEST
Prevalentemente Nuvoloso
Prevalentemente Nuvoloso
 Wind from varies
Vento: variabile 0 km/h
Temperatura: 16°C
Punto di Rugiada: 13°C
Umidità: 83%
Barometro: 1022 hPa
Nuvole: Prevalentemente Nuvoloso
Visibilità: 10 km
Nuvole nel Dettaglio: Prevalentemente Nuvoloso 762 m
2020/05/29 11:55 LIPF 291155Z /////KT 9999 BKN025 16/13 Q1022
LIPE - Bologna Borgo Panigale, It
Distanza dalla Stazione: 46 km
Ultimo Aggiornamento: Venerdì 29 Maggio 2020 14:20 CEST
Parzialmente Nuvoloso
Parzialmente Nuvoloso
 Wind from Ovest-Sud-Ovest
Vento: Ovest-Sud-Ovest 11 km/h
Temperatura: 17°C
Punto di Rugiada: 10°C
Umidità: 64%
Barometro: 1021 hPa
Nuvole: Parzialmente Nuvoloso
Visibilità: 10 km
Nuvole nel Dettaglio: Parzialmente Nuvoloso 1219 m
Parzialmente Nuvoloso 1829 m
2020/05/29 12:20 LIPE 291220Z 24006KT 9999 SCT040 SCT060 17/10 Q1021
LIMF - Torino Caselle, It
Distanza dalla Stazione: 320 km
Ultimo Aggiornamento: Venerdì 29 Maggio 2020 14:20 CEST
Prevalentemente Nuvoloso
Prevalentemente Nuvoloso
 Wind from Nord
Vento: Nord 9 km/h
Temperatura: 17°C
Punto di Rugiada: 9°C
Umidità: 59%
Barometro: 1022 hPa
Nuvole: Prevalentemente Nuvoloso
Visibilità: 10 km
Nuvole nel Dettaglio: Qualche Nuvola 914 m
Prevalentemente Nuvoloso 2134 m
2020/05/29 12:20 LIMF 291220Z 01005KT 310V050 9999 FEW030 BKN070 17/09 Q1022
 
LIML - Milano Malpensa, It
Distanza dalla Stazione: 249 km
Ultimo Aggiornamento: Venerdì 29 Maggio 2020 14:20 CEST
Parzialmente Nuvoloso
Parzialmente Nuvoloso
 Wind from Sud-Sud-Est
Vento: Sud-Sud-Est 17 km/h
Temperatura: 21°C
Punto di Rugiada: 11°C
Umidità: 53%
Barometro: 1021 hPa
Nuvole: Parzialmente Nuvoloso
Visibilità: 10 km
Nuvole nel Dettaglio: Parzialmente Nuvoloso 914 m
2020/05/29 12:20 LIML 291220Z 15009KT 120V180 9999 SCT030 21/11 Q1021 NOSIG
LIME - Bergamo Orio al Serio, It
Distanza dalla Stazione: 181 km
Ultimo Aggiornamento: Venerdì 29 Maggio 2020 14:20 CEST
Parzialmente Nuvoloso
Parzialmente Nuvoloso
 Wind from Sud-Est
Vento: Sud-Est 11 km/h
Temperatura: 19°C
Punto di Rugiada: 8°C
Umidità: 49%
Barometro: 1021 hPa
Nuvole: Parzialmente Nuvoloso
Visibilità: 10 km
Nuvole nel Dettaglio: Parzialmente Nuvoloso 1829 m
2020/05/29 12:20 LIME 291220Z 13006KT 080V180 9999 SCT060 19/08 Q1021 NOSIG
LIPZ - Venezia Tessera, It
Distanza dalla Stazione: 93 km
Ultimo Aggiornamento: Venerdì 29 Maggio 2020 14:20 CEST
Qualche Nuvola
Qualche Nuvola
 Wind from Sud-Est
Vento: Sud-Est 13 km/h
Temperatura: 21°C
Punto di Rugiada: 7°C
Umidità: 40%
Barometro: 1020 hPa
Nuvole: Qualche Nuvola
Visibilità: 10 km
Nuvole nel Dettaglio: Qualche Nuvola 1219 m
2020/05/29 12:20 LIPZ 291220Z 14007KT 110V180 9999 FEW040 21/07 Q1020 NOSIG
 
LIVT - Trieste, It
Distanza dalla Stazione: 179 km
Ultimo Aggiornamento: Venerdì 29 Maggio 2020 13:55 CEST
Sereno
Sereno
 Wind from varies
Vento: variabile 0 km/h
Temperatura: 22°C
Punto di Rugiada: 7°C
Umidità: 38%
Barometro: 1020 hPa
Condizioni: Sereno
Visibilità: superiore a 10 km
2020/05/29 11:55 LIVT 291155Z /////KT CAVOK 22/07 Q1020 RMK SCT SCT060 QUK 2 QUL 1 E VIS MAR 20 KM VIS MIN 9999
LIMJ - Genova, It
Distanza dalla Stazione: 229 km
Ultimo Aggiornamento: Venerdì 29 Maggio 2020 14:20 CEST
Prevalentemente Nuvoloso
Prevalentemente Nuvoloso
 Wind from Sud-Ovest
Vento: Sud-Ovest 15 km/h
Temperatura: 19°C
Punto di Rugiada: 13°C
Umidità: 68%
Barometro: 1020 hPa
Nuvole: Prevalentemente Nuvoloso
Visibilità: 10 km
Nuvole nel Dettaglio: Qualche Nuvola 762 m
Parzialmente Nuvoloso 914 m
Prevalentemente Nuvoloso 1372 m
2020/05/29 12:20 LIMJ 291220Z 23008KT 9999 FEW025TCU SCT030 BKN045 19/13 Q1020
LIRQ - Firenze Amerigo Vespucci, It
Distanza dalla Stazione: 119 km
Ultimo Aggiornamento: Venerdì 29 Maggio 2020 14:20 CEST
Prevalentemente Nuvoloso
Prevalentemente Nuvoloso
 Wind from Est-Nord-Est
Vento: Est-Nord-Est 30 km/h
Temperatura: 17°C
Punto di Rugiada: 7°C
Umidità: 52%
Barometro: 1020 hPa
Nuvole: Prevalentemente Nuvoloso
Visibilità: 10 km
Nuvole nel Dettaglio: Prevalentemente Nuvoloso 2134 m
2020/05/29 12:20 LIRQ 291220Z 06016KT 9999 BKN070 17/07 Q1020
 
LIPY - Ancona, It
Distanza dalla Stazione: 189 km
Ultimo Aggiornamento: Venerdì 29 Maggio 2020 14:20 CEST
Pioggia Leggera, Prevalentemente Nuvoloso
Pioggia Leggera, Prevalentemente Nuvoloso
 Wind from Ovest-Sud-Ovest
Vento: Ovest-Sud-Ovest 11 km/h
Temperatura: 14°C
Punto di Rugiada: 12°C
Umidità: 88%
Barometro: 1020 hPa
Condizioni: Pioggia Leggera
Nuvole: Prevalentemente Nuvoloso
Visibilità: 10 km
Nuvole nel Dettaglio: Qualche Nuvola 427 m
Prevalentemente Nuvoloso 2042 m
2020/05/29 12:20 LIPY 291220Z AUTO 24006KT 9999 -RA FEW014/// BKN067/// 14/12 Q1020
LIBP - Pescara, It
Distanza dalla Stazione: 333 km
Ultimo Aggiornamento: Venerdì 29 Maggio 2020 14:20 CEST
Prevalentemente Nuvoloso
Prevalentemente Nuvoloso
 Wind from Nord-Est
Vento: Nord-Est 17 km/h
Temperatura: 19°C
Punto di Rugiada: 11°C
Umidità: 60%
Barometro: 1019 hPa
Nuvole: Prevalentemente Nuvoloso
Visibilità: 10 km
Nuvole nel Dettaglio: Prevalentemente Nuvoloso 3048 m
2020/05/29 12:20 LIBP 291220Z AUTO 04009KT 010V070 9999 BKN100/// 19/11 Q1019
LIRF - Roma-Fiumicino, It
Distanza dalla Stazione: 334 km
Ultimo Aggiornamento: Venerdì 29 Maggio 2020 14:20 CEST
Parzialmente Nuvoloso
Parzialmente Nuvoloso
 Wind from Nord
Vento: Nord 19 km/h
Temperatura: 17°C
Punto di Rugiada: 13°C
Umidità: 77%
Barometro: 1019 hPa
Nuvole: Parzialmente Nuvoloso
Visibilità: 10 km
Nuvole nel Dettaglio: Parzialmente Nuvoloso 1524 m
2020/05/29 12:20 LIRF 291220Z 36010KT 9999 SCT050 17/13 Q1019 TEMPO RA
 
LIRN - Napoli Capodichino, It
Distanza dalla Stazione: 494 km
Ultimo Aggiornamento: Venerdì 29 Maggio 2020 14:20 CEST
Qualche Nuvola
Qualche Nuvola
 Wind from Sud-Ovest
Vento: Sud-Ovest 15 km/h
Temperatura: 23°C
Punto di Rugiada: 9°C
Umidità: 41%
Barometro: 1017 hPa
Nuvole: Qualche Nuvola
Visibilità: 10 km
Nuvole nel Dettaglio: Qualche Nuvola 1219 m
2020/05/29 12:20 LIRN 291220Z 23008KT 200V270 9999 FEW040 23/09 Q1017 NOSIG
LIBD - Bari Palese, It
Distanza dalla Stazione: 594 km
Ultimo Aggiornamento: Venerdì 29 Maggio 2020 14:20 CEST
Sereno
Sereno
 Wind from Nord
Vento: Nord 9 km/h
Temperatura: 21°C
Punto di Rugiada: 10°C
Umidità: 50%
Barometro: 1017 hPa
Condizioni: Sereno
Visibilità: superiore a 10 km
2020/05/29 12:20 LIBD 291220Z 01005KT 300V060 CAVOK 21/10 Q1017
LIBG - Taranto Grottaglie, It
Distanza dalla Stazione: 670 km
Ultimo Aggiornamento: Venerdì 29 Maggio 2020 13:50 CEST
Parzialmente Nuvoloso
Parzialmente Nuvoloso
 Wind from Nord
Vento: Nord 22 km/h
Temperatura: 25°C
Punto di Rugiada: 6°C
Umidità: 30%
Barometro: 1016 hPa
Nuvole: Parzialmente Nuvoloso
Visibilità: 10 km
Nuvole nel Dettaglio: Parzialmente Nuvoloso 1219 m
2020/05/29 11:50 LIBG 291150Z 36012KT 9999 SCT040 25/06 Q1016
 
LICR - Reggio Calabria, It
Distanza dalla Stazione: 819 km
Ultimo Aggiornamento: Venerdì 29 Maggio 2020 13:50 CEST
Qualche Nuvola
Qualche Nuvola
 Wind from Nord
Vento: Nord 20 km/h
Temperatura: 25°C
Punto di Rugiada: 6°C
Umidità: 30%
Barometro: 1018 hPa
Nuvole: Qualche Nuvola
Visibilità: 10 km
Nuvole nel Dettaglio: Qualche Nuvola 1219 m
2020/05/29 11:50 LICR 291150Z 36011KT 9999 FEW040 25/06 Q1018
LICJ - Palermo Punta Raisi, It
Distanza dalla Stazione: 762 km
Ultimo Aggiornamento: Venerdì 29 Maggio 2020 14:20 CEST
Qualche Nuvola
Qualche Nuvola
 Wind from Nord-Est
Vento: Nord-Est 22 km/h
Temperatura: 22°C
Punto di Rugiada: 12°C
Umidità: 53%
Barometro: 1018 hPa
Nuvole: Qualche Nuvola
Visibilità: 10 km
Nuvole nel Dettaglio: Qualche Nuvola 914 m
2020/05/29 12:20 LICJ 291220Z 04012KT 9999 FEW030 22/12 Q1018
LICC - Catania Fontanarossa, It
Distanza dalla Stazione: 866 km
Ultimo Aggiornamento: Venerdì 29 Maggio 2020 14:20 CEST
Parzialmente Nuvoloso
Parzialmente Nuvoloso
 Wind from Est-Sud-Est
Vento: Est-Sud-Est 20 km/h
Temperatura: 22°C
Punto di Rugiada: 13°C
Umidità: 57%
Barometro: 1018 hPa
Nuvole: Parzialmente Nuvoloso
Visibilità: 10 km
Nuvole nel Dettaglio: Parzialmente Nuvoloso 1067 m
2020/05/29 12:20 LICC 291220Z 11011KT 080V140 9999 SCT035 22/13 Q1018
 
LIEE - Cagliari Elmas, It
Distanza dalla Stazione: 655 km
Ultimo Aggiornamento: Venerdì 29 Maggio 2020 14:20 CEST
Sereno
Sereno
 Wind from Sud-Sud-Est
Vento: Sud-Sud-Est 17 km/h
Temperatura: 23°C
Punto di Rugiada: 12°C
Umidità: 50%
Barometro: 1017 hPa
Condizioni: Sereno
Visibilità: superiore a 10 km
2020/05/29 12:20 LIEE 291220Z 16009KT CAVOK 23/12 Q1017
LIEO - Olbia, It
Distanza dalla Stazione: 463 km
Ultimo Aggiornamento: Venerdì 29 Maggio 2020 14:20 CEST
Parzialmente Nuvoloso
Parzialmente Nuvoloso
 Wind from Est-Nord-Est
Vento: Est-Nord-Est 20 km/h
Temperatura: 23°C
Punto di Rugiada: 11°C
Umidità: 47%
Barometro: 1018 hPa
Nuvole: Parzialmente Nuvoloso
Visibilità: 10 km
Nuvole nel Dettaglio: Parzialmente Nuvoloso 762 m
2020/05/29 12:20 LIEO 291220Z 07011KT 040V100 9999 SCT025 23/11 Q1018
LICG - Pantelleria, It
Distanza dalla Stazione: 893 km
Ultimo Aggiornamento: Venerdì 29 Maggio 2020 13:50 CEST
Qualche Nuvola
Qualche Nuvola
 Wind from Sud-Sud-Est
Vento: Sud-Sud-Est 26 km/h
Temperatura: 23°C
Punto di Rugiada: 13°C
Umidità: 53%
Barometro: 1018 hPa
Nuvole: Qualche Nuvola
Visibilità: 10 km
Nuvole nel Dettaglio: Qualche Nuvola 914 m
2020/05/29 11:50 LICG 291150Z 16014KT 9999 FEW030 23/13 Q1018